sensor_id;sensor_type;location;lat;lon;timestamp;P1;P2;P0
47081;PMS5003;33066;49.296;14.470;2023-02-28T00:01:01;9;7;
47081;PMS5003;33066;49.296;14.470;2023-02-28T00:03:27;15;15;
47081;PMS5003;33066;49.296;14.470;2023-02-28T00:05:52;12;9;
47081;PMS5003;33066;49.296;14.470;2023-02-28T00:08:17;11;9;
47081;PMS5003;33066;49.296;14.470;2023-02-28T00:10:43;10;10;
47081;PMS5003;33066;49.296;14.470;2023-02-28T00:13:08;9;9;
47081;PMS5003;33066;49.296;14.470;2023-02-28T00:15:34;8;8;
47081;PMS5003;33066;49.296;14.470;2023-02-28T00:17:59;12;11;
47081;PMS5003;33066;49.296;14.470;2023-02-28T00:20:25;8;7;
47081;PMS5003;33066;49.296;14.470;2023-02-28T00:22:51;18;13;
47081;PMS5003;33066;49.296;14.470;2023-02-28T00:25:17;12;11;
47081;PMS5003;33066;49.296;14.470;2023-02-28T00:27:41;9;9;
47081;PMS5003;33066;49.296;14.470;2023-02-28T00:30:09;12;10;
47081;PMS5003;33066;49.296;14.470;2023-02-28T00:32:32;12;11;
47081;PMS5003;33066;49.296;14.470;2023-02-28T00:34:57;9;7;
47081;PMS5003;33066;49.296;14.470;2023-02-28T00:37:23;12;12;
47081;PMS5003;33066;49.296;14.470;2023-02-28T00:39:48;10;10;
47081;PMS5003;33066;49.296;14.470;2023-02-28T00:42:13;10;10;
47081;PMS5003;33066;49.296;14.470;2023-02-28T00:44:39;19;13;
47081;PMS5003;33066;49.296;14.470;2023-02-28T00:47:04;7;7;
47081;PMS5003;33066;49.296;14.470;2023-02-28T00:49:30;20;15;
47081;PMS5003;33066;49.296;14.470;2023-02-28T00:51:55;13;12;
47081;PMS5003;33066;49.296;14.470;2023-02-28T00:54:20;13;12;
47081;PMS5003;33066;49.296;14.470;2023-02-28T00:56:45;11;8;
47081;PMS5003;33066;49.296;14.470;2023-02-28T00:59:11;9;9;
47081;PMS5003;33066;49.296;14.470;2023-02-28T01:01:36;13;9;
47081;PMS5003;33066;49.296;14.470;2023-02-28T01:04:02;13;13;
47081;PMS5003;33066;49.296;14.470;2023-02-28T01:06:27;13;8;
47081;PMS5003;33066;49.296;14.470;2023-02-28T01:08:53;13;9;
47081;PMS5003;33066;49.296;14.470;2023-02-28T01:11:19;22;18;
47081;PMS5003;33066;49.296;14.470;2023-02-28T01:13:45;15;14;
47081;PMS5003;33066;49.296;14.470;2023-02-28T01:16:10;12;12;
47081;PMS5003;33066;49.296;14.470;2023-02-28T01:18:35;13;9;
47081;PMS5003;33066;49.296;14.470;2023-02-28T01:21:03;13;11;
47081;PMS5003;33066;49.296;14.470;2023-02-28T01:23:26;11;11;
47081;PMS5003;33066;49.296;14.470;2023-02-28T01:25:52;8;8;
47081;PMS5003;33066;49.296;14.470;2023-02-28T01:28:17;12;12;
47081;PMS5003;33066;49.296;14.470;2023-02-28T01:30:46;19;14;
47081;PMS5003;33066;49.296;14.470;2023-02-28T01:33:08;11;8;
47081;PMS5003;33066;49.296;14.470;2023-02-28T01:35:34;19;12;
47081;PMS5003;33066;49.296;14.470;2023-02-28T01:37:59;15;9;
47081;PMS5003;33066;49.296;14.470;2023-02-28T01:40:24;17;13;
47081;PMS5003;33066;49.296;14.470;2023-02-28T01:42:49;17;14;
47081;PMS5003;33066;49.296;14.470;2023-02-28T01:45:18;14;13;
47081;PMS5003;33066;49.296;14.470;2023-02-28T01:47:41;15;11;
47081;PMS5003;33066;49.296;14.470;2023-02-28T01:50:07;9;9;
47081;PMS5003;33066;49.296;14.470;2023-02-28T01:52:31;14;11;
47081;PMS5003;33066;49.296;14.470;2023-02-28T01:54:58;23;19;
47081;PMS5003;33066;49.296;14.470;2023-02-28T01:57:24;14;11;
47081;PMS5003;33066;49.296;14.470;2023-02-28T01:59:50;18;17;
47081;PMS5003;33066;49.296;14.470;2023-02-28T02:02:14;7;7;
47081;PMS5003;33066;49.296;14.470;2023-02-28T02:04:46;12;11;
47081;PMS5003;33066;49.296;14.470;2023-02-28T02:07:04;11;11;
47081;PMS5003;33066;49.296;14.470;2023-02-28T02:09:30;16;14;
47081;PMS5003;33066;49.296;14.470;2023-02-28T02:11:55;14;11;
47081;PMS5003;33066;49.296;14.470;2023-02-28T02:14:26;13;13;
47081;PMS5003;33066;49.296;14.470;2023-02-28T02:16:49;14;12;
47081;PMS5003;33066;49.296;14.470;2023-02-28T02:19:15;13;8;
47081;PMS5003;33066;49.296;14.470;2023-02-28T02:21:42;12;9;
47081;PMS5003;33066;49.296;14.470;2023-02-28T02:24:06;13;9;
47081;PMS5003;33066;49.296;14.470;2023-02-28T02:26:33;13;12;
47081;PMS5003;33066;49.296;14.470;2023-02-28T02:28:56;13;12;
47081;PMS5003;33066;49.296;14.470;2023-02-28T02:31:23;9;9;
47081;PMS5003;33066;49.296;14.470;2023-02-28T02:36:11;16;13;
47081;PMS5003;33066;49.296;14.470;2023-02-28T02:38:36;14;12;
47081;PMS5003;33066;49.296;14.470;2023-02-28T02:41:03;18;14;
47081;PMS5003;33066;49.296;14.470;2023-02-28T02:43:26;13;9;
47081;PMS5003;33066;49.296;14.470;2023-02-28T02:45:52;13;8;
47081;PMS5003;33066;49.296;14.470;2023-02-28T02:48:17;11;11;
47081;PMS5003;33066;49.296;14.470;2023-02-28T02:50:42;17;14;
47081;PMS5003;33066;49.296;14.470;2023-02-28T02:53:07;12;12;
47081;PMS5003;33066;49.296;14.470;2023-02-28T02:55:34;14;11;
47081;PMS5003;33066;49.296;14.470;2023-02-28T02:57:58;18;15;
47081;PMS5003;33066;49.296;14.470;2023-02-28T03:00:24;13;11;
47081;PMS5003;33066;49.296;14.470;2023-02-28T03:02:49;10;10;
47081;PMS5003;33066;49.296;14.470;2023-02-28T03:05:16;20;15;
47081;PMS5003;33066;49.296;14.470;2023-02-28T03:07:39;16;11;
47081;PMS5003;33066;49.296;14.470;2023-02-28T03:12:32;13;13;
47081;PMS5003;33066;49.296;14.470;2023-02-28T03:14:56;9;9;
47081;PMS5003;33066;49.296;14.470;2023-02-28T03:17:25;12;12;
47081;PMS5003;33066;49.296;14.470;2023-02-28T03:19:51;20;18;
47081;PMS5003;33066;49.296;14.470;2023-02-28T03:22:19;17;17;
47081;PMS5003;33066;49.296;14.470;2023-02-28T03:24:39;9;9;
47081;PMS5003;33066;49.296;14.470;2023-02-28T03:27:04;16;14;
47081;PMS5003;33066;49.296;14.470;2023-02-28T03:29:28;13;12;
47081;PMS5003;33066;49.296;14.470;2023-02-28T03:31:54;16;13;
47081;PMS5003;33066;49.296;14.470;2023-02-28T03:34:21;22;16;
47081;PMS5003;33066;49.296;14.470;2023-02-28T03:36:45;16;14;
47081;PMS5003;33066;49.296;14.470;2023-02-28T03:39:11;11;9;
47081;PMS5003;33066;49.296;14.470;2023-02-28T03:41:36;21;16;
47081;PMS5003;33066;49.296;14.470;2023-02-28T03:44:03;11;8;
47081;PMS5003;33066;49.296;14.470;2023-02-28T03:46:27;16;16;
47081;PMS5003;33066;49.296;14.470;2023-02-28T03:48:53;11;10;
47081;PMS5003;33066;49.296;14.470;2023-02-28T03:51:18;16;14;
47081;PMS5003;33066;49.296;14.470;2023-02-28T03:53:44;16;13;
47081;PMS5003;33066;49.296;14.470;2023-02-28T03:56:11;13;9;
47081;PMS5003;33066;49.296;14.470;2023-02-28T03:58:37;11;9;
47081;PMS5003;33066;49.296;14.470;2023-02-28T04:01:04;9;9;
47081;PMS5003;33066;49.296;14.470;2023-02-28T04:03:26;21;17;
47081;PMS5003;33066;49.296;14.470;2023-02-28T04:05:52;14;12;
47081;PMS5003;33066;49.296;14.470;2023-02-28T04:08:17;17;11;
47081;PMS5003;33066;49.296;14.470;2023-02-28T04:12:59;12;12;
47081;PMS5003;33066;49.296;14.470;2023-02-28T04:15:24;14;12;
47081;PMS5003;33066;49.296;14.470;2023-02-28T04:17:50;16;8;
47081;PMS5003;33066;49.296;14.470;2023-02-28T04:20:15;14;12;
47081;PMS5003;33066;49.296;14.470;2023-02-28T04:22:40;22;18;
47081;PMS5003;33066;49.296;14.470;2023-02-28T04:25:06;9;9;
47081;PMS5003;33066;49.296;14.470;2023-02-28T04:27:31;12;12;
47081;PMS5003;33066;49.296;14.470;2023-02-28T04:29:57;11;10;
47081;PMS5003;33066;49.296;14.470;2023-02-28T04:32:23;17;12;
47081;PMS5003;33066;49.296;14.470;2023-02-28T04:34:48;12;11;
47081;PMS5003;33066;49.296;14.470;2023-02-28T04:37:14;18;11;
47081;PMS5003;33066;49.296;14.470;2023-02-28T04:39:40;10;10;
47081;PMS5003;33066;49.296;14.470;2023-02-28T04:42:05;21;16;
47081;PMS5003;33066;49.296;14.470;2023-02-28T04:44:31;12;7;
47081;PMS5003;33066;49.296;14.470;2023-02-28T04:46:56;12;9;
47081;PMS5003;33066;49.296;14.470;2023-02-28T04:49:22;17;13;
47081;PMS5003;33066;49.296;14.470;2023-02-28T04:51:47;16;11;
47081;PMS5003;33066;49.296;14.470;2023-02-28T04:54:12;21;20;
47081;PMS5003;33066;49.296;14.470;2023-02-28T04:56:38;13;9;
47081;PMS5003;33066;49.296;14.470;2023-02-28T04:59:03;18;17;
47081;PMS5003;33066;49.296;14.470;2023-02-28T05:01:30;16;14;
47081;PMS5003;33066;49.296;14.470;2023-02-28T05:03:54;12;11;
47081;PMS5003;33066;49.296;14.470;2023-02-28T05:06:20;19;13;
47081;PMS5003;33066;49.296;14.470;2023-02-28T05:08:45;15;12;
47081;PMS5003;33066;49.296;14.470;2023-02-28T05:11:13;16;12;
47081;PMS5003;33066;49.296;14.470;2023-02-28T05:13:36;31;20;
47081;PMS5003;33066;49.296;14.470;2023-02-28T05:16:01;15;13;
47081;PMS5003;33066;49.296;14.470;2023-02-28T05:18:27;17;13;
47081;PMS5003;33066;49.296;14.470;2023-02-28T05:20:52;11;11;
47081;PMS5003;33066;49.296;14.470;2023-02-28T05:23:18;17;14;
47081;PMS5003;33066;49.296;14.470;2023-02-28T05:25:43;14;14;
47081;PMS5003;33066;49.296;14.470;2023-02-28T05:28:08;12;9;
47081;PMS5003;33066;49.296;14.470;2023-02-28T05:30:33;18;12;
47081;PMS5003;33066;49.296;14.470;2023-02-28T05:32:59;22;21;
47081;PMS5003;33066;49.296;14.470;2023-02-28T05:35:24;18;16;
47081;PMS5003;33066;49.296;14.470;2023-02-28T05:37:50;23;18;
47081;PMS5003;33066;49.296;14.470;2023-02-28T05:40:16;19;16;
47081;PMS5003;33066;49.296;14.470;2023-02-28T05:42:40;13;13;
47081;PMS5003;33066;49.296;14.470;2023-02-28T05:45:07;16;12;
47081;PMS5003;33066;49.296;14.470;2023-02-28T05:47:32;17;13;
47081;PMS5003;33066;49.296;14.470;2023-02-28T05:49:57;17;16;
47081;PMS5003;33066;49.296;14.470;2023-02-28T05:52:22;21;16;
47081;PMS5003;33066;49.296;14.470;2023-02-28T05:54:48;10;8;
47081;PMS5003;33066;49.296;14.470;2023-02-28T05:57:13;11;11;
47081;PMS5003;33066;49.296;14.470;2023-02-28T05:59:39;14;12;
47081;PMS5003;33066;49.296;14.470;2023-02-28T06:02:05;15;12;
47081;PMS5003;33066;49.296;14.470;2023-02-28T06:04:30;11;11;
47081;PMS5003;33066;49.296;14.470;2023-02-28T06:06:55;13;11;
47081;PMS5003;33066;49.296;14.470;2023-02-28T06:09:20;29;22;
47081;PMS5003;33066;49.296;14.470;2023-02-28T06:11:46;16;15;
47081;PMS5003;33066;49.296;14.470;2023-02-28T06:14:12;17;16;
47081;PMS5003;33066;49.296;14.470;2023-02-28T06:16:37;16;15;
47081;PMS5003;33066;49.296;14.470;2023-02-28T06:19:03;16;12;
47081;PMS5003;33066;49.296;14.470;2023-02-28T06:21:28;25;20;
47081;PMS5003;33066;49.296;14.470;2023-02-28T06:23:54;15;12;
47081;PMS5003;33066;49.296;14.470;2023-02-28T06:26:19;18;15;
47081;PMS5003;33066;49.296;14.470;2023-02-28T06:28:45;20;18;
47081;PMS5003;33066;49.296;14.470;2023-02-28T06:31:11;18;12;
47081;PMS5003;33066;49.296;14.470;2023-02-28T06:33:36;18;12;
47081;PMS5003;33066;49.296;14.470;2023-02-28T06:36:01;13;12;
47081;PMS5003;33066;49.296;14.470;2023-02-28T06:38:27;21;17;
47081;PMS5003;33066;49.296;14.470;2023-02-28T06:40:53;13;12;
47081;PMS5003;33066;49.296;14.470;2023-02-28T06:43:17;18;13;
47081;PMS5003;33066;49.296;14.470;2023-02-28T06:45:43;21;17;
47081;PMS5003;33066;49.296;14.470;2023-02-28T06:48:08;16;12;
47081;PMS5003;33066;49.296;14.470;2023-02-28T06:50:33;16;13;
47081;PMS5003;33066;49.296;14.470;2023-02-28T06:52:59;14;14;
47081;PMS5003;33066;49.296;14.470;2023-02-28T06:55:25;13;12;
47081;PMS5003;33066;49.296;14.470;2023-02-28T06:57:50;17;9;
47081;PMS5003;33066;49.296;14.470;2023-02-28T07:00:15;19;14;
47081;PMS5003;33066;49.296;14.470;2023-02-28T07:02:40;25;23;
47081;PMS5003;33066;49.296;14.470;2023-02-28T07:05:07;13;11;
47081;PMS5003;33066;49.296;14.470;2023-02-28T07:07:32;18;16;
47081;PMS5003;33066;49.296;14.470;2023-02-28T07:09:57;22;19;
47081;PMS5003;33066;49.296;14.470;2023-02-28T07:12:23;16;12;
47081;PMS5003;33066;49.296;14.470;2023-02-28T07:14:48;21;14;
47081;PMS5003;33066;49.296;14.470;2023-02-28T07:17:14;17;17;
47081;PMS5003;33066;49.296;14.470;2023-02-28T07:19:39;18;12;
47081;PMS5003;33066;49.296;14.470;2023-02-28T07:22:04;14;12;
47081;PMS5003;33066;49.296;14.470;2023-02-28T07:24:30;21;18;
47081;PMS5003;33066;49.296;14.470;2023-02-28T07:26:55;24;21;
47081;PMS5003;33066;49.296;14.470;2023-02-28T07:29:20;26;18;
47081;PMS5003;33066;49.296;14.470;2023-02-28T07:31:46;18;16;
47081;PMS5003;33066;49.296;14.470;2023-02-28T07:34:12;31;27;
47081;PMS5003;33066;49.296;14.470;2023-02-28T07:36:37;38;33;
47081;PMS5003;33066;49.296;14.470;2023-02-28T07:39:02;59;48;
47081;PMS5003;33066;49.296;14.470;2023-02-28T07:41:28;32;24;
47081;PMS5003;33066;49.296;14.470;2023-02-28T07:43:54;17;14;
47081;PMS5003;33066;49.296;14.470;2023-02-28T07:46:19;28;22;
47081;PMS5003;33066;49.296;14.470;2023-02-28T07:48:44;20;14;
47081;PMS5003;33066;49.296;14.470;2023-02-28T07:51:10;30;28;
47081;PMS5003;33066;49.296;14.470;2023-02-28T07:53:35;46;40;
47081;PMS5003;33066;49.296;14.470;2023-02-28T07:56:01;20;19;
47081;PMS5003;33066;49.296;14.470;2023-02-28T07:58:27;22;17;
47081;PMS5003;33066;49.296;14.470;2023-02-28T08:00:52;18;16;
47081;PMS5003;33066;49.296;14.470;2023-02-28T08:03:17;22;17;
47081;PMS5003;33066;49.296;14.470;2023-02-28T08:05:42;27;23;
47081;PMS5003;33066;49.296;14.470;2023-02-28T08:08:07;35;26;
47081;PMS5003;33066;49.296;14.470;2023-02-28T08:10:33;18;18;
47081;PMS5003;33066;49.296;14.470;2023-02-28T08:12:58;29;24;
47081;PMS5003;33066;49.296;14.470;2023-02-28T08:15:24;17;12;
47081;PMS5003;33066;49.296;14.470;2023-02-28T08:17:49;28;17;
47081;PMS5003;33066;49.296;14.470;2023-02-28T08:20:15;19;16;
47081;PMS5003;33066;49.296;14.470;2023-02-28T08:22:40;22;17;
47081;PMS5003;33066;49.296;14.470;2023-02-28T08:25:06;23;22;
47081;PMS5003;33066;49.296;14.470;2023-02-28T08:27:31;17;15;
47081;PMS5003;33066;49.296;14.470;2023-02-28T08:29:57;14;14;
47081;PMS5003;33066;49.296;14.470;2023-02-28T08:32:23;31;30;
47081;PMS5003;33066;49.296;14.470;2023-02-28T08:34:48;35;28;
47081;PMS5003;33066;49.296;14.470;2023-02-28T08:37:14;23;19;
47081;PMS5003;33066;49.296;14.470;2023-02-28T08:39:39;24;24;
47081;PMS5003;33066;49.296;14.470;2023-02-28T08:42:05;24;21;
47081;PMS5003;33066;49.296;14.470;2023-02-28T08:44:30;56;50;
47081;PMS5003;33066;49.296;14.470;2023-02-28T08:46:56;51;39;
47081;PMS5003;33066;49.296;14.470;2023-02-28T08:49:20;55;42;
47081;PMS5003;33066;49.296;14.470;2023-02-28T08:51:46;50;47;
47081;PMS5003;33066;49.296;14.470;2023-02-28T08:54:11;70;61;
47081;PMS5003;33066;49.296;14.470;2023-02-28T08:56:36;42;36;
47081;PMS5003;33066;49.296;14.470;2023-02-28T08:59:01;23;20;
47081;PMS5003;33066;49.296;14.470;2023-02-28T09:01:27;18;18;
47081;PMS5003;33066;49.296;14.470;2023-02-28T09:03:52;19;18;
47081;PMS5003;33066;49.296;14.470;2023-02-28T09:06:18;26;26;
47081;PMS5003;33066;49.296;14.470;2023-02-28T09:08:43;23;20;
47081;PMS5003;33066;49.296;14.470;2023-02-28T09:11:09;23;21;
47081;PMS5003;33066;49.296;14.470;2023-02-28T09:13:33;23;20;
47081;PMS5003;33066;49.296;14.470;2023-02-28T09:15:59;19;18;
47081;PMS5003;33066;49.296;14.470;2023-02-28T09:18:24;25;20;
47081;PMS5003;33066;49.296;14.470;2023-02-28T09:20:49;20;16;
47081;PMS5003;33066;49.296;14.470;2023-02-28T09:23:14;31;23;
47081;PMS5003;33066;49.296;14.470;2023-02-28T09:25:44;28;19;
47081;PMS5003;33066;49.296;14.470;2023-02-28T09:28:05;18;16;
47081;PMS5003;33066;49.296;14.470;2023-02-28T09:30:30;32;27;
47081;PMS5003;33066;49.296;14.470;2023-02-28T09:32:56;27;20;
47081;PMS5003;33066;49.296;14.470;2023-02-28T09:35:22;27;22;
47081;PMS5003;33066;49.296;14.470;2023-02-28T09:37:47;24;24;
47081;PMS5003;33066;49.296;14.470;2023-02-28T09:40:12;32;25;
47081;PMS5003;33066;49.296;14.470;2023-02-28T09:42:38;26;22;
47081;PMS5003;33066;49.296;14.470;2023-02-28T09:45:05;31;24;
47081;PMS5003;33066;49.296;14.470;2023-02-28T09:47:29;33;26;
47081;PMS5003;33066;49.296;14.470;2023-02-28T09:49:54;17;14;
47081;PMS5003;33066;49.296;14.470;2023-02-28T09:52:20;26;20;
47081;PMS5003;33066;49.296;14.470;2023-02-28T09:54:45;17;16;
47081;PMS5003;33066;49.296;14.470;2023-02-28T09:57:14;22;20;
47081;PMS5003;33066;49.296;14.470;2023-02-28T09:59:40;25;17;
47081;PMS5003;33066;49.296;14.470;2023-02-28T10:02:03;32;22;
47081;PMS5003;33066;49.296;14.470;2023-02-28T10:06:52;23;21;
47081;PMS5003;33066;49.296;14.470;2023-02-28T10:09:18;28;21;
47081;PMS5003;33066;49.296;14.470;2023-02-28T10:11:43;34;28;
47081;PMS5003;33066;49.296;14.470;2023-02-28T10:14:11;23;20;
47081;PMS5003;33066;49.296;14.470;2023-02-28T10:16:35;61;52;
47081;PMS5003;33066;49.296;14.470;2023-02-28T10:19:02;27;21;
47081;PMS5003;33066;49.296;14.470;2023-02-28T10:21:26;31;27;
47081;PMS5003;33066;49.296;14.470;2023-02-28T10:23:53;30;24;
47081;PMS5003;33066;49.296;14.470;2023-02-28T10:26:17;22;18;
47081;PMS5003;33066;49.296;14.470;2023-02-28T10:28:42;25;21;
47081;PMS5003;33066;49.296;14.470;2023-02-28T10:31:08;35;24;
47081;PMS5003;33066;49.296;14.470;2023-02-28T10:33:33;21;17;
47081;PMS5003;33066;49.296;14.470;2023-02-28T10:35:58;33;25;
47081;PMS5003;33066;49.296;14.470;2023-02-28T10:38:24;28;24;
47081;PMS5003;33066;49.296;14.470;2023-02-28T10:40:48;23;22;
47081;PMS5003;33066;49.296;14.470;2023-02-28T10:43:20;28;23;
47081;PMS5003;33066;49.296;14.470;2023-02-28T10:45:39;30;25;
47081;PMS5003;33066;49.296;14.470;2023-02-28T10:48:06;68;63;
47081;PMS5003;33066;49.296;14.470;2023-02-28T10:50:32;77;64;
47081;PMS5003;33066;49.296;14.470;2023-02-28T10:52:56;36;34;
47081;PMS5003;33066;49.296;14.470;2023-02-28T10:55:22;44;40;
47081;PMS5003;33066;49.296;14.470;2023-02-28T10:57:46;42;32;
47081;PMS5003;33066;49.296;14.470;2023-02-28T11:00:13;44;40;
47081;PMS5003;33066;49.296;14.470;2023-02-28T11:02:37;31;28;
47081;PMS5003;33066;49.296;14.470;2023-02-28T11:05:02;40;28;
47081;PMS5003;33066;49.296;14.470;2023-02-28T11:07:28;36;32;
47081;PMS5003;33066;49.296;14.470;2023-02-28T11:09:53;19;19;
47081;PMS5003;33066;49.296;14.470;2023-02-28T11:12:20;31;27;
47081;PMS5003;33066;49.296;14.470;2023-02-28T11:14:47;32;27;
47081;PMS5003;33066;49.296;14.470;2023-02-28T11:17:13;34;27;
47081;PMS5003;33066;49.296;14.470;2023-02-28T11:19:36;77;75;
47081;PMS5003;33066;49.296;14.470;2023-02-28T11:22:01;28;26;
47081;PMS5003;33066;49.296;14.470;2023-02-28T11:24:26;36;28;
47081;PMS5003;33066;49.296;14.470;2023-02-28T11:26:51;43;40;
47081;PMS5003;33066;49.296;14.470;2023-02-28T11:29:18;33;31;
47081;PMS5003;33066;49.296;14.470;2023-02-28T11:31:42;33;28;
47081;PMS5003;33066;49.296;14.470;2023-02-28T11:36:32;27;22;
47081;PMS5003;33066;49.296;14.470;2023-02-28T11:38:59;35;30;
47081;PMS5003;33066;49.296;14.470;2023-02-28T11:41:32;30;26;
47081;PMS5003;33066;49.296;14.470;2023-02-28T11:43:54;44;39;
47081;PMS5003;33066;49.296;14.470;2023-02-28T11:46:18;42;35;
47081;PMS5003;33066;49.296;14.470;2023-02-28T11:48:42;40;36;
47081;PMS5003;33066;49.296;14.470;2023-02-28T11:51:08;46;36;
47081;PMS5003;33066;49.296;14.470;2023-02-28T11:53:37;89;76;
47081;PMS5003;33066;49.296;14.470;2023-02-28T11:55:58;78;63;
47081;PMS5003;33066;49.296;14.470;2023-02-28T11:58:26;139;109;
47081;PMS5003;33066;49.296;14.470;2023-02-28T12:00:53;120;110;
47081;PMS5003;33066;49.296;14.470;2023-02-28T12:03:16;57;51;
47081;PMS5003;33066;49.296;14.470;2023-02-28T12:05:40;71;60;
47081;PMS5003;33066;49.296;14.470;2023-02-28T12:08:07;29;24;
47081;PMS5003;33066;49.296;14.470;2023-02-28T12:10:30;35;29;
47081;PMS5003;33066;49.296;14.470;2023-02-28T12:12:59;31;31;
47081;PMS5003;33066;49.296;14.470;2023-02-28T12:15:23;32;24;
47081;PMS5003;33066;49.296;14.470;2023-02-28T12:17:49;33;30;
47081;PMS5003;33066;49.296;14.470;2023-02-28T12:20:13;44;33;
47081;PMS5003;33066;49.296;14.470;2023-02-28T12:22:37;34;27;
47081;PMS5003;33066;49.296;14.470;2023-02-28T12:25:08;38;33;
47081;PMS5003;33066;49.296;14.470;2023-02-28T12:27:28;23;22;
47081;PMS5003;33066;49.296;14.470;2023-02-28T12:29:54;29;21;
47081;PMS5003;33066;49.296;14.470;2023-02-28T12:32:21;34;26;
47081;PMS5003;33066;49.296;14.470;2023-02-28T12:34:45;30;21;
47081;PMS5003;33066;49.296;14.470;2023-02-28T12:37:12;28;25;
47081;PMS5003;33066;49.296;14.470;2023-02-28T12:39:36;29;25;
47081;PMS5003;33066;49.296;14.470;2023-02-28T12:42:01;33;28;
47081;PMS5003;33066;49.296;14.470;2023-02-28T12:44:28;40;30;
47081;PMS5003;33066;49.296;14.470;2023-02-28T12:46:52;27;25;
47081;PMS5003;33066;49.296;14.470;2023-02-28T12:49:17;39;32;
47081;PMS5003;33066;49.296;14.470;2023-02-28T12:51:42;41;33;
47081;PMS5003;33066;49.296;14.470;2023-02-28T12:54:11;23;21;
47081;PMS5003;33066;49.296;14.470;2023-02-28T12:56:36;37;33;
47081;PMS5003;33066;49.296;14.470;2023-02-28T12:59:00;33;28;
47081;PMS5003;33066;49.296;14.470;2023-02-28T13:01:32;43;36;
47081;PMS5003;33066;49.296;14.470;2023-02-28T13:03:54;42;41;
47081;PMS5003;33066;49.296;14.470;2023-02-28T13:06:20;53;48;
47081;PMS5003;33066;49.296;14.470;2023-02-28T13:08:47;71;64;
47081;PMS5003;33066;49.296;14.470;2023-02-28T13:11:07;50;40;
47081;PMS5003;33066;49.296;14.470;2023-02-28T13:13:32;42;35;
47081;PMS5003;33066;49.296;14.470;2023-02-28T13:15:59;35;34;
47081;PMS5003;33066;49.296;14.470;2023-02-28T13:18:27;36;32;
47081;PMS5003;33066;49.296;14.470;2023-02-28T13:20:48;34;33;
47081;PMS5003;33066;49.296;14.470;2023-02-28T13:28:08;43;38;
47081;PMS5003;33066;49.296;14.470;2023-02-28T13:37:47;60;54;
47081;PMS5003;33066;49.296;14.470;2023-02-28T13:42:38;38;27;
47081;PMS5003;33066;49.296;14.470;2023-02-28T13:47:29;48;35;
47081;PMS5003;33066;49.296;14.470;2023-02-28T13:49:54;52;46;
47081;PMS5003;33066;49.296;14.470;2023-02-28T13:52:21;46;41;
47081;PMS5003;33066;49.296;14.470;2023-02-28T13:54:50;63;54;
47081;PMS5003;33066;49.296;14.470;2023-02-28T13:57:17;50;46;
47081;PMS5003;33066;49.296;14.470;2023-02-28T13:59:38;33;31;
47081;PMS5003;33066;49.296;14.470;2023-02-28T14:02:06;36;31;
47081;PMS5003;33066;49.296;14.470;2023-02-28T14:06:52;43;37;
47081;PMS5003;33066;49.296;14.470;2023-02-28T14:09:19;46;39;
47081;PMS5003;33066;49.296;14.470;2023-02-28T14:11:43;40;33;
47081;PMS5003;33066;49.296;14.470;2023-02-28T14:14:08;36;29;
47081;PMS5003;33066;49.296;14.470;2023-02-28T14:16:37;31;30;
47081;PMS5003;33066;49.296;14.470;2023-02-28T14:18:59;154;126;
47081;PMS5003;33066;49.296;14.470;2023-02-28T14:21:24;39;29;
47081;PMS5003;33066;49.296;14.470;2023-02-28T14:23:55;27;23;
47081;PMS5003;33066;49.296;14.470;2023-02-28T14:26:18;34;32;
47081;PMS5003;33066;49.296;14.470;2023-02-28T14:28:44;52;42;
47081;PMS5003;33066;49.296;14.470;2023-02-28T14:31:06;36;29;
47081;PMS5003;33066;49.296;14.470;2023-02-28T14:33:35;36;33;
47081;PMS5003;33066;49.296;14.470;2023-02-28T14:36:00;46;43;
47081;PMS5003;33066;49.296;14.470;2023-02-28T14:38:23;38;35;
47081;PMS5003;33066;49.296;14.470;2023-02-28T14:40:47;40;28;
47081;PMS5003;33066;49.296;14.470;2023-02-28T14:45:38;32;26;
47081;PMS5003;33066;49.296;14.470;2023-02-28T14:48:04;33;32;
47081;PMS5003;33066;49.296;14.470;2023-02-28T14:50:29;35;29;
47081;PMS5003;33066;49.296;14.470;2023-02-28T14:52:54;30;28;
47081;PMS5003;33066;49.296;14.470;2023-02-28T14:55:22;32;26;
47081;PMS5003;33066;49.296;14.470;2023-02-28T14:57:50;36;30;
47081;PMS5003;33066;49.296;14.470;2023-02-28T15:00:13;29;21;
47081;PMS5003;33066;49.296;14.470;2023-02-28T15:02:36;29;22;
47081;PMS5003;33066;49.296;14.470;2023-02-28T15:05:22;39;29;
47081;PMS5003;33066;49.296;14.470;2023-02-28T15:07:26;34;31;
47081;PMS5003;33066;49.296;14.470;2023-02-28T15:12:17;54;35;
47081;PMS5003;33066;49.296;14.470;2023-02-28T15:14:43;33;31;
47081;PMS5003;33066;49.296;14.470;2023-02-28T15:17:11;88;75;
47081;PMS5003;33066;49.296;14.470;2023-02-28T15:19:34;90;72;
47081;PMS5003;33066;49.296;14.470;2023-02-28T15:22:00;41;34;
47081;PMS5003;33066;49.296;14.470;2023-02-28T15:24:29;31;30;
47081;PMS5003;33066;49.296;14.470;2023-02-28T15:26:51;61;54;
47081;PMS5003;33066;49.296;14.470;2023-02-28T15:29:16;37;33;
47081;PMS5003;33066;49.296;14.470;2023-02-28T15:31:43;43;32;
47081;PMS5003;33066;49.296;14.470;2023-02-28T15:36:33;50;42;
47081;PMS5003;33066;49.296;14.470;2023-02-28T15:38:58;37;30;
47081;PMS5003;33066;49.296;14.470;2023-02-28T15:41:25;31;29;
47081;PMS5003;33066;49.296;14.470;2023-02-28T15:43:49;30;27;
47081;PMS5003;33066;49.296;14.470;2023-02-28T15:46:14;46;41;
47081;PMS5003;33066;49.296;14.470;2023-02-28T15:48:42;65;56;
47081;PMS5003;33066;49.296;14.470;2023-02-28T15:51:07;64;45;
47081;PMS5003;33066;49.296;14.470;2023-02-28T15:53:32;59;50;
47081;PMS5003;33066;49.296;14.470;2023-02-28T15:55:59;80;60;
47081;PMS5003;33066;49.296;14.470;2023-02-28T15:58:21;67;48;
47081;PMS5003;33066;49.296;14.470;2023-02-28T16:05:38;29;23;
47081;PMS5003;33066;49.296;14.470;2023-02-28T16:10:29;34;30;
47081;PMS5003;33066;49.296;14.470;2023-02-28T16:12:55;43;36;
47081;PMS5003;33066;49.296;14.470;2023-02-28T16:15:21;44;26;
47081;PMS5003;33066;49.296;14.470;2023-02-28T16:17:45;40;31;
47081;PMS5003;33066;49.296;14.470;2023-02-28T16:20:12;36;32;
47081;PMS5003;33066;49.296;14.470;2023-02-28T16:22:36;41;37;
47081;PMS5003;33066;49.296;14.470;2023-02-28T16:25:02;45;37;
47081;PMS5003;33066;49.296;14.470;2023-02-28T16:27:28;50;38;
47081;PMS5003;33066;49.296;14.470;2023-02-28T16:29:52;56;48;
47081;PMS5003;33066;49.296;14.470;2023-02-28T16:32:18;50;48;
47081;PMS5003;33066;49.296;14.470;2023-02-28T16:34:43;57;52;
47081;PMS5003;33066;49.296;14.470;2023-02-28T16:37:11;64;52;